createdAt,value
2022-08-26T00:00:59.565Z,17.84
2022-08-26T00:06:01.283Z,17.77
2022-08-26T00:11:02.617Z,17.7
2022-08-26T00:16:04.520Z,17.64
2022-08-26T00:21:06.450Z,17.58
2022-08-26T00:26:08.396Z,17.54
2022-08-26T00:31:10.749Z,17.5
2022-08-26T00:36:16.124Z,17.43
2022-08-26T00:41:12.975Z,17.39
2022-08-26T00:46:14.367Z,17.34
2022-08-26T00:51:16.013Z,17.29
2022-08-26T00:56:17.698Z,17.24
2022-08-26T01:01:19.745Z,17.19
2022-08-26T01:06:21.049Z,17.14
2022-08-26T01:11:22.437Z,17.09
2022-08-26T01:16:23.856Z,17.04
2022-08-26T01:21:25.376Z,17.01
2022-08-26T01:26:26.631Z,16.95
2022-08-26T01:31:28.727Z,16.91
2022-08-26T01:36:30.528Z,16.86
2022-08-26T01:41:32.646Z,16.83
2022-08-26T01:46:34.279Z,16.79
2022-08-26T01:51:36.302Z,16.76
2022-08-26T01:56:37.574Z,16.73
2022-08-26T02:01:39.225Z,16.7
2022-08-26T02:06:41.263Z,16.67
2022-08-26T02:11:42.755Z,16.65
2022-08-26T02:16:44.377Z,16.62
2022-08-26T02:21:50.968Z,16.6
2022-08-26T02:26:47.871Z,16.56
2022-08-26T02:31:49.714Z,16.52
2022-08-26T02:36:51.433Z,16.49
2022-08-26T02:41:53.469Z,16.45
2022-08-26T02:46:55.245Z,16.43
2022-08-26T02:51:56.866Z,16.4
2022-08-26T02:56:58.784Z,16.37
2022-08-26T03:02:01.229Z,16.37
2022-08-26T03:07:02.178Z,16.35
2022-08-26T03:12:03.687Z,16.34
2022-08-26T03:17:05.161Z,16.34
2022-08-26T03:22:06.777Z,16.34
2022-08-26T03:27:08.434Z,16.36
2022-08-26T03:32:10.702Z,16.36
2022-08-26T03:37:11.793Z,16.36
2022-08-26T03:42:13.848Z,16.36
2022-08-26T03:47:15.872Z,16.36
2022-08-26T03:52:17.544Z,16.36
2022-08-26T03:57:18.790Z,16.35
2022-08-26T04:02:20.516Z,16.29
2022-08-26T04:07:22.574Z,16.28
2022-08-26T04:12:23.940Z,16.25
2022-08-26T04:17:25.949Z,16.21
2022-08-26T04:22:27.789Z,16.19
2022-08-26T04:27:29.053Z,16.17
2022-08-26T04:32:30.499Z,16.16
2022-08-26T04:37:31.860Z,16.14
2022-08-26T04:42:34.230Z,16.15
2022-08-26T04:47:35.767Z,16.14
2022-08-26T04:52:37.427Z,16.16
2022-08-26T04:52:43.740Z,16.16
2022-08-26T04:57:45.297Z,16.19
2022-08-26T05:02:47.161Z,16.21
2022-08-26T05:07:49.905Z,16.26
2022-08-26T05:12:50.649Z,16.36
2022-08-26T05:17:52.681Z,16.4
2022-08-26T05:22:54.733Z,16.45
2022-08-26T05:27:56.741Z,16.5
2022-08-26T05:32:58.206Z,16.54
2022-08-26T05:38:00.027Z,16.65
2022-08-26T05:43:01.822Z,16.69
2022-08-26T05:48:03.897Z,16.77
2022-08-26T05:53:05.625Z,16.86
2022-08-26T06:13:12.106Z,17.37
2022-08-26T06:33:18.917Z,18.06
2022-08-26T06:38:20.962Z,18.21
2022-08-26T06:48:24.559Z,18.5
2022-08-26T07:03:30.544Z,18.87
2022-08-26T07:08:32.593Z,19.01
2022-08-26T07:13:33.825Z,19.15
2022-08-26T07:18:36.045Z,19.28
2022-08-26T07:23:37.906Z,19.41
2022-08-26T07:28:39.858Z,19.53
2022-08-26T07:33:41.522Z,19.65
2022-08-26T07:38:43.524Z,19.75
2022-08-26T07:43:44.958Z,19.9
2022-08-26T07:48:46.386Z,20.01
2022-08-26T07:53:47.910Z,20.12
2022-08-26T07:58:51.397Z,20.14
2022-08-26T08:03:51.367Z,20.26
2022-08-26T08:08:53.263Z,20.48
2022-08-26T08:13:56.650Z,20.71
2022-08-26T08:18:56.415Z,20.98
2022-08-26T08:23:58.533Z,21.2
2022-08-26T08:28:59.737Z,21.54
2022-08-26T08:34:01.478Z,22.01
2022-08-26T08:39:03.192Z,22.39
2022-08-26T08:44:04.719Z,22.44
2022-08-26T08:49:06.709Z,23.06
2022-08-26T08:54:08.785Z,23.34
2022-08-26T08:59:10.731Z,23.21
2022-08-26T09:04:12.126Z,23.57
2022-08-26T09:09:14.014Z,23.67
2022-08-26T09:14:15.427Z,23.79
2022-08-26T09:19:18.912Z,24.03
2022-08-26T09:24:18.903Z,24.18
2022-08-26T09:34:22.667Z,24.97
2022-08-26T09:39:24.704Z,25.36
2022-08-26T09:44:26.669Z,25.85
2022-08-26T09:49:29.888Z,25.66
2022-08-26T09:54:32.328Z,25.5
2022-08-26T09:59:32.128Z,25.8
2022-08-26T10:04:33.580Z,25.82
2022-08-26T10:09:34.702Z,26.17
2022-08-26T10:14:36.497Z,26.41
2022-08-26T10:19:41.943Z,26.51
2022-08-26T10:24:39.445Z,26.85
2022-08-26T10:29:40.826Z,26.56
2022-08-26T10:34:42.226Z,26.37
2022-08-26T10:39:43.855Z,26.18
2022-08-26T10:44:45.971Z,26
2022-08-26T10:49:47.118Z,25.95
2022-08-26T10:54:48.954Z,25.75
2022-08-26T10:59:50.230Z,25.8
2022-08-26T11:04:51.445Z,25.83
2022-08-26T11:09:52.868Z,25.96
2022-08-26T11:14:56.237Z,25.68
2022-08-26T11:20:01.365Z,25.63
2022-08-26T11:24:58.069Z,25.54
2022-08-26T11:29:59.576Z,25.63
2022-08-26T11:35:01.415Z,25.78
2022-08-26T11:40:03.297Z,25.9
2022-08-26T11:45:05.611Z,25.87
2022-08-26T11:50:06.979Z,26.03
2022-08-26T11:55:09.104Z,26.33
2022-08-26T12:00:12.476Z,26.55
2022-08-26T12:05:12.719Z,26.91
2022-08-26T12:10:14.781Z,27.02
2022-08-26T12:15:16.426Z,27.19
2022-08-26T12:20:18.013Z,27.17
2022-08-26T12:25:20.106Z,27.18
2022-08-26T12:30:21.312Z,27.24
2022-08-26T12:35:23.559Z,27.4
2022-08-26T12:40:25.320Z,27.19
2022-08-26T12:45:27.374Z,27.41
2022-08-26T12:50:28.716Z,27.54
2022-08-26T12:55:30.352Z,27.59
2022-08-26T13:00:32.333Z,27.35
2022-08-26T13:05:33.866Z,27.3
2022-08-26T13:10:35.162Z,27.1
2022-08-26T13:15:36.481Z,27.14
2022-08-26T13:20:38.399Z,27.16
2022-08-26T13:25:39.668Z,27.21
2022-08-26T13:30:41.140Z,27.05
2022-08-26T13:35:42.523Z,27.1
2022-08-26T13:40:44.232Z,27
2022-08-26T13:45:45.660Z,27.04
2022-08-26T13:50:47.189Z,27.2
2022-08-26T13:55:49.060Z,27
2022-08-26T14:00:50.936Z,27.06
2022-08-26T14:05:52.340Z,26.95
2022-08-26T14:10:53.638Z,27
2022-08-26T14:15:55.174Z,27
2022-08-26T14:20:56.498Z,27.19
2022-08-26T14:25:58.711Z,27.2
2022-08-26T14:31:01.162Z,27.14
2022-08-26T14:36:01.956Z,27.13
2022-08-26T14:41:03.703Z,26.95
2022-08-26T14:46:06.125Z,26.78
2022-08-26T14:51:07.730Z,26.81
2022-08-26T14:56:09.319Z,26.82
2022-08-26T15:01:10.900Z,26.77
2022-08-26T15:06:12.884Z,26.83
2022-08-26T15:11:14.755Z,26.74
2022-08-26T15:16:17.055Z,26.76
2022-08-26T15:21:18.431Z,26.77
2022-08-26T15:26:19.723Z,26.74
2022-08-26T15:31:21.338Z,26.62
2022-08-26T15:36:23.145Z,26.53
2022-08-26T15:41:24.824Z,26.53
2022-08-26T15:46:27.051Z,26.59
2022-08-26T15:51:28.801Z,26.51
2022-08-26T15:56:30.365Z,26.51
2022-08-26T16:01:32.015Z,26.5
2022-08-26T16:06:33.509Z,26.48
2022-08-26T16:11:35.620Z,26.34
2022-08-26T16:16:36.817Z,26.27
2022-08-26T16:26:40.287Z,26.15
2022-08-26T16:31:41.934Z,26.01
2022-08-26T16:36:43.148Z,25.94
2022-08-26T16:41:44.614Z,25.83
2022-08-26T16:46:46.525Z,25.82
2022-08-26T16:51:48.168Z,25.76
2022-08-26T16:56:49.939Z,25.61
2022-08-26T17:01:51.830Z,25.51
2022-08-26T17:06:53.271Z,25.45
2022-08-26T17:11:54.749Z,25.25
2022-08-26T17:16:56.130Z,25.16
2022-08-26T17:21:57.787Z,25.01
2022-08-26T17:26:59.700Z,24.94
2022-08-26T17:32:01.773Z,24.84
2022-08-26T17:37:03.217Z,24.68
2022-08-26T17:42:04.438Z,24.49
2022-08-26T17:47:06.412Z,24.4
2022-08-26T17:52:11.410Z,24.31
2022-08-26T17:57:10.721Z,24.18
2022-08-26T18:02:11.190Z,24.08
2022-08-26T18:07:12.623Z,23.95
2022-08-26T18:12:13.884Z,23.75
2022-08-26T18:17:15.609Z,23.58
2022-08-26T18:22:35.863Z,23.42
2022-08-26T18:27:19.607Z,23.31
2022-08-26T18:32:20.837Z,23.18
2022-08-26T18:37:22.691Z,23.03
2022-08-26T18:42:24.248Z,22.88
2022-08-26T18:47:25.808Z,22.79
2022-08-26T18:52:27.675Z,22.61
2022-08-26T18:57:29.723Z,22.45
2022-08-26T19:02:31.703Z,22.36
2022-08-26T19:07:36.562Z,22.29
2022-08-26T19:12:34.917Z,22.22
2022-08-26T19:17:36.665Z,22.07
2022-08-26T19:22:37.868Z,21.76
2022-08-26T19:27:39.132Z,21.33
2022-08-26T19:32:41.274Z,21.04
2022-08-26T19:37:42.720Z,20.94
2022-08-26T19:42:44.877Z,20.86
2022-08-26T19:47:46.220Z,20.81
2022-08-26T19:52:48.250Z,20.68
2022-08-26T19:57:49.824Z,20.52
2022-08-26T20:02:51.099Z,20.42
2022-08-26T20:07:53.053Z,20.24
2022-08-26T20:12:54.643Z,20.1
2022-08-26T20:17:56.465Z,19.92
2022-08-26T20:22:57.668Z,19.73
2022-08-26T20:27:59.304Z,19.54
2022-08-26T20:33:01.383Z,19.36
2022-08-26T20:38:03.260Z,19.11
2022-08-26T20:43:04.679Z,19.06
2022-08-26T21:08:12.329Z,18.89
2022-08-26T21:43:34.724Z,18.57
2022-08-26T21:48:32.326Z,18.51
2022-08-26T21:53:33.151Z,18.45
2022-08-26T22:13:39.790Z,18.29
2022-08-26T22:18:41.836Z,18.29
2022-08-26T22:23:43.537Z,18.28
2022-08-26T22:28:44.728Z,18.26
2022-08-26T22:33:46.100Z,18.14
2022-08-26T22:38:47.456Z,17.99
2022-08-26T22:43:49.296Z,17.79
2022-08-26T22:48:53.891Z,17.79
2022-08-26T22:53:52.311Z,17.83
2022-08-26T22:58:54.278Z,17.85
2022-08-26T23:03:56.293Z,17.87
2022-08-26T23:08:57.800Z,17.87
2022-08-26T23:13:59.813Z,17.73
2022-08-26T23:19:01.149Z,17.54
2022-08-26T23:24:03.228Z,17.56
2022-08-26T23:29:05.267Z,17.57
2022-08-26T23:34:07.219Z,17.58
2022-08-26T23:39:08.499Z,17.52
2022-08-26T23:44:09.935Z,17.51
2022-08-26T23:49:11.457Z,17.51
2022-08-26T23:54:13.083Z,17.48
2022-08-26T23:59:14.509Z,17.42
